Weather at Pit Lane Exit Helipad

Public forecast

Using degrees Celsius for public forecast. Weather courtesy of forecast.io.

Closest aviation weather report (METAR) to Pit Lane Exit Helipad

Closest report is Kuala Lumpur International Airport, 1.7 nm (3.2 km) WSW.

2024/05/30 16:30 (retrieved 21 minutes ago)

WMKK 301630Z VRB02KT 9999 FEW030 28/25 Q1009 NOSIG

Closest aviation forecast (TAF) to Pit Lane Exit Helipad

Closest forecast is Kuala Lumpur International Airport, 1.7 nm (3.2 km) WSW.

2024/05/30 12:12 (retrieved 5 hours ago)

TAF WMKK 301100Z 3012/3118 VRB02KT 9999 FEW018 PROB30 TEMPO 3019/3100 4000 TSRA FEW010 FEW017CB SCT020